Time;durP1;ratioP1;P1;durP2;ratioP2;P2;SDS_P1;SDS_P2;PMS_P1;PMS_P2;Temp;Humidity;BMP_temperature;BMP_pressure;BME280_temperature;BME280_humidity;BME280_pressure;Samples;Min_cycle;Max_cycle;Signal;HPM_P1;HPM_P2
2021/06/22 00:00:16;0.00;0.00;0.62;0.00;0.00;0.62;1.90;1.40;;;26.50;37.70;;;;;;2252710;61;20368;-64
2021/06/22 00:02:44;0.00;0.00;0.62;0.00;0.00;0.62;1.60;1.27;;;26.40;37.60;;;;;;2253080;61;20376;-66
2021/06/22 00:05:11;0.00;0.00;0.62;0.00;0.00;0.62;3.67;1.80;;;26.40;37.60;;;;;;2253613;61;20365;-63
2021/06/22 00:07:40;0.00;0.00;0.62;0.00;0.00;0.62;1.90;1.40;;;26.50;37.70;;;;;;2253359;61;20597;-69
2021/06/22 00:10:08;0.00;0.00;0.62;0.00;0.00;0.62;2.00;1.40;;;26.50;37.70;;;;;;2253158;61;20383;-63
2021/06/22 00:12:35;0.00;0.00;0.62;0.00;0.00;0.62;1.80;1.33;;;26.50;37.50;;;;;;2253128;61;20389;-66
2021/06/22 00:15:05;0.00;0.00;0.62;0.00;0.00;0.62;2.80;1.40;;;26.50;37.40;;;;;;2253355;61;20585;-62
2021/06/22 00:17:32;0.00;0.00;0.62;0.00;0.00;0.62;2.17;1.67;;;26.60;37.50;;;;;;2253346;61;20798;-66
2021/06/22 00:19:59;0.00;0.00;0.62;0.00;0.00;0.62;3.10;2.03;;;26.50;37.20;;;;;;2253543;61;20356;-66
2021/06/22 00:22:26;0.00;0.00;0.62;0.00;0.00;0.62;2.13;1.40;;;26.50;36.90;;;;;;2252720;61;20377;-67
2021/06/22 00:24:54;0.00;0.00;0.62;0.00;0.00;0.62;2.90;1.70;;;26.50;36.90;;;;;;2253360;61;20361;-63
2021/06/22 00:27:20;0.00;0.00;0.62;0.00;0.00;0.62;3.20;1.87;;;26.50;36.90;;;;;;2253129;61;20629;-67
2021/06/22 00:29:50;0.00;0.00;0.62;0.00;0.00;0.62;3.30;2.00;;;26.50;36.80;;;;;;2253169;61;20356;-63
2021/06/22 00:32:17;0.00;0.00;0.62;0.00;0.00;0.62;4.13;2.07;;;26.50;36.80;;;;;;2253363;61;20613;-62
2021/06/22 00:34:45;0.00;0.00;0.62;0.00;0.00;0.62;3.93;2.00;;;26.50;36.80;;;;;;2253568;61;20776;-64
2021/06/22 00:37:14;0.00;0.00;0.62;0.00;0.00;0.62;3.67;2.00;;;26.50;36.60;;;;;;2253236;61;20361;-65
2021/06/22 00:39:41;0.00;0.00;0.62;0.00;0.00;0.62;2.50;2.30;;;26.50;36.50;;;;;;2252918;61;20401;-66
2021/06/22 00:42:10;0.00;0.00;0.62;0.00;0.00;0.62;4.87;1.90;;;26.50;36.50;;;;;;2252834;61;20377;-63
2021/06/22 00:44:44;0.00;0.00;0.62;0.00;0.00;0.62;2.80;2.40;;;26.50;36.40;;;;;;2252558;61;20360;-62
2021/06/22 00:47:11;0.00;0.00;0.62;0.00;0.00;0.62;7.07;2.60;;;26.50;36.10;;;;;;2252842;61;20364;-63
2021/06/22 00:49:38;0.00;0.00;0.62;0.00;0.00;0.62;3.63;2.40;;;26.50;36.10;;;;;;2252996;61;20368;-62
2021/06/22 00:52:06;0.00;0.00;0.62;0.00;0.00;0.62;4.73;2.60;;;26.50;36.10;;;;;;2252664;61;20391;-62
2021/06/22 00:54:41;0.00;0.00;0.62;0.00;0.00;0.62;4.93;2.60;;;26.50;36.00;;;;;;2252871;61;20443;-66
2021/06/22 00:57:10;0.00;0.00;0.62;0.00;0.00;0.62;3.50;3.03;;;26.50;36.10;;;;;;2253009;61;20711;-67
2021/06/22 00:59:37;0.00;0.00;0.62;0.00;0.00;0.62;3.10;2.43;;;26.50;36.00;;;;;;2252526;61;20443;-63
2021/06/22 01:02:05;0.00;0.00;0.62;0.00;0.00;0.62;2.90;2.30;;;26.50;36.00;;;;;;2253292;61;20451;-62
2021/06/22 01:04:33;0.00;0.00;0.62;0.00;0.00;0.62;3.03;2.50;;;26.50;36.00;;;;;;2253385;61;20492;-65
2021/06/22 01:07:22;0.00;0.00;0.62;0.00;0.00;0.62;2.87;2.30;;;26.50;36.00;;;;;;2252917;61;20588;-65
2021/06/22 01:09:49;0.00;0.00;0.62;0.00;0.00;0.62;6.93;2.60;;;26.50;36.00;;;;;;2252894;61;20364;-63
2021/06/22 01:12:17;0.00;0.00;0.62;0.00;0.00;0.62;5.40;3.20;;;26.60;36.70;;;;;;2253415;61;20384;-61
2021/06/22 01:14:45;0.00;0.00;0.62;0.00;0.00;0.62;4.67;2.63;;;26.60;36.10;;;;;;2252436;61;20365;-64
2021/06/22 01:17:13;0.00;0.00;0.62;0.00;0.00;0.62;4.43;2.20;;;26.60;36.10;;;;;;2252917;61;20367;-64
2021/06/22 01:19:40;0.00;0.00;0.62;0.00;0.00;0.62;3.90;2.20;;;26.60;36.00;;;;;;2253255;61;20644;-64
2021/06/22 01:22:09;0.00;0.00;0.62;0.00;0.00;0.62;4.37;2.17;;;26.60;36.00;;;;;;2253120;61;20376;-65
2021/06/22 01:24:44;0.00;0.00;0.62;0.00;0.00;0.62;3.17;2.40;;;26.60;36.00;;;;;;2254113;61;20373;-66
2021/06/22 01:27:13;0.00;0.00;0.62;0.00;0.00;0.62;4.13;2.67;;;26.60;36.00;;;;;;2254108;61;20360;-64
2021/06/22 01:29:40;0.00;0.00;0.62;0.00;0.00;0.62;2.43;1.97;;;26.60;36.10;;;;;;2253476;61;20360;-65
2021/06/22 01:32:08;0.00;0.00;0.62;0.00;0.00;0.62;4.20;2.30;;;26.60;36.10;;;;;;2253675;61;20384;-65
2021/06/22 01:34:40;0.00;0.00;0.62;0.00;0.00;0.62;3.23;1.93;;;26.60;36.10;;;;;;2253673;61;20361;-64
2021/06/22 01:37:10;0.00;0.00;0.62;0.00;0.00;0.62;4.67;2.37;;;26.60;36.00;;;;;;2253575;61;20782;-66
2021/06/22 01:39:43;0.00;0.00;0.62;0.00;0.00;0.62;4.70;2.80;;;26.70;36.00;;;;;;2253347;61;20399;-66
2021/06/22 01:42:10;0.00;0.00;0.62;0.00;0.00;0.62;4.23;2.77;;;26.70;35.90;;;;;;2254130;61;20739;-64
2021/06/22 01:44:47;0.00;0.00;0.62;0.00;0.00;0.62;4.40;2.20;;;26.70;35.80;;;;;;2253038;61;20747;-67
2021/06/22 01:47:16;0.00;0.00;0.62;0.00;0.00;0.62;4.63;2.60;;;26.70;35.80;;;;;;2253594;61;20691;-64
2021/06/22 01:49:43;0.00;0.00;0.62;0.00;0.00;0.62;4.60;2.37;;;26.70;35.70;;;;;;2254063;61;20353;-66
2021/06/22 01:52:15;0.00;0.00;0.62;0.00;0.00;0.62;5.33;3.17;;;26.70;35.50;;;;;;2253553;61;20372;-66
2021/06/22 01:54:43;0.00;0.00;0.62;0.00;0.00;0.62;3.83;2.07;;;26.70;35.30;;;;;;2253564;61;20771;-64
2021/06/22 01:57:10;0.00;0.00;0.62;0.00;0.00;0.62;11.23;2.50;;;26.70;35.30;;;;;;2253667;61;20378;-66
2021/06/22 01:59:45;0.00;0.00;0.62;0.00;0.00;0.62;4.60;2.77;;;26.70;35.40;;;;;;2252902;61;20394;-66
2021/06/22 02:02:20;0.00;0.00;0.62;0.00;0.00;0.62;6.20;3.00;;;26.70;35.40;;;;;;2254063;61;20391;-65
2021/06/22 02:05:08;0.00;0.00;0.62;0.00;0.00;0.62;6.07;3.00;;;26.70;35.40;;;;;;2253162;61;20363;-67
2021/06/22 02:07:36;0.00;0.00;0.62;0.00;0.00;0.62;4.90;2.77;;;26.70;35.30;;;;;;2253292;61;20365;-68
2021/06/22 02:10:14;0.00;0.00;0.62;0.00;0.00;0.62;8.37;3.27;;;26.70;35.40;;;;;;2253450;61;20367;-65
2021/06/22 02:13:00;0.00;0.00;0.62;0.00;0.00;0.62;5.37;2.77;;;26.70;35.40;;;;;;2253179;61;20430;-65
2021/06/22 02:15:27;0.00;0.00;0.62;0.00;0.00;0.62;7.37;3.33;;;26.70;35.30;;;;;;2253225;61;20361;-66
2021/06/22 02:17:54;0.00;0.00;0.62;0.00;0.00;0.62;5.27;2.47;;;26.70;35.30;;;;;;2253509;61;20393;-64
2021/06/22 02:20:23;0.00;0.00;0.62;0.00;0.00;0.62;4.20;2.53;;;26.70;35.30;;;;;;2253163;61;20353;-62
2021/06/22 02:22:52;0.00;0.00;0.62;0.00;0.00;0.62;4.33;2.03;;;26.70;35.20;;;;;;2253239;61;20399;-67
2021/06/22 02:25:20;0.00;0.00;0.62;0.00;0.00;0.62;3.80;2.93;;;26.70;35.30;;;;;;2253942;61;20357;-67
2021/06/22 02:27:47;0.00;0.00;0.62;0.00;0.00;0.62;3.60;2.43;;;26.70;36.00;;;;;;2253668;61;20363;-64
2021/06/22 02:30:18;0.00;0.00;0.62;0.00;0.00;0.62;4.97;3.00;;;26.70;35.20;;;;;;2249860;61;20364;-66
2021/06/22 02:32:45;0.00;0.00;0.62;0.00;0.00;0.62;6.00;2.53;;;26.70;35.30;;;;;;2253349;61;20503;-64
2021/06/22 02:35:19;0.00;0.00;0.62;0.00;0.00;0.62;3.30;2.40;;;26.70;35.10;;;;;;2253053;61;20356;-64
2021/06/22 02:37:52;0.00;0.00;0.62;0.00;0.00;0.62;3.60;2.20;;;26.70;35.80;;;;;;2253219;61;20384;-65
2021/06/22 02:40:22;0.00;0.00;0.62;0.00;0.00;0.62;6.17;2.90;;;26.70;35.20;;;;;;2250292;61;20457;-63
2021/06/22 02:42:53;0.00;0.00;0.62;0.00;0.00;0.62;9.37;2.77;;;26.70;35.20;;;;;;2253186;61;20377;-66
2021/06/22 02:45:21;0.00;0.00;0.62;0.00;0.00;0.62;3.23;2.33;;;26.70;35.30;;;;;;2249943;61;20432;-66
2021/06/22 02:47:49;0.00;0.00;0.62;0.00;0.00;0.62;4.20;2.60;;;26.70;35.30;;;;;;2253504;61;20407;-66
2021/06/22 02:50:20;0.00;0.00;0.62;0.00;0.00;0.62;13.40;2.90;;;26.60;35.20;;;;;;2253097;61;20735;-65
2021/06/22 02:52:47;0.00;0.00;0.62;0.00;0.00;0.62;4.10;2.73;;;26.70;35.30;;;;;;2253241;61;20380;-66
2021/06/22 02:55:19;0.00;0.00;0.62;0.00;0.00;0.62;4.83;2.87;;;26.70;35.20;;;;;;2253882;61;20415;-68
2021/06/22 02:58:19;0.00;0.00;0.62;0.00;0.00;0.62;4.03;2.60;;;26.70;35.10;;;;;;2251848;61;20380;-64
2021/06/22 03:00:52;0.00;0.00;0.62;0.00;0.00;0.62;5.20;2.43;;;26.70;35.10;;;;;;2253386;61;20435;-64
2021/06/22 03:03:18;0.00;0.00;0.62;0.00;0.00;0.62;4.53;3.00;;;26.70;34.90;;;;;;2253398;61;20799;-64
2021/06/22 03:05:58;0.00;0.00;0.62;0.00;0.00;0.62;6.80;3.23;;;26.70;34.80;;;;;;2252817;61;20669;-64
2021/06/22 03:08:33;0.00;0.00;0.62;0.00;0.00;0.62;4.67;2.80;;;26.70;34.90;;;;;;2253523;61;20349;-67
2021/06/22 03:11:04;0.00;0.00;0.62;0.00;0.00;0.62;5.43;2.60;;;26.70;34.80;;;;;;2253726;61;20354;-68
2021/06/22 03:13:33;0.00;0.00;0.62;0.00;0.00;0.62;4.27;2.27;;;26.60;34.50;;;;;;2252901;61;20356;-66
2021/06/22 03:16:00;0.00;0.00;0.62;0.00;0.00;0.62;6.70;3.13;;;26.60;34.60;;;;;;2253353;61;20583;-67
2021/06/22 03:18:26;0.00;0.00;0.62;0.00;0.00;0.62;3.90;2.70;;;26.60;34.30;;;;;;2253788;61;20386;-65
2021/06/22 03:20:55;0.00;0.00;0.62;0.00;0.00;0.62;5.73;2.73;;;26.60;34.10;;;;;;2253252;61;20361;-66
2021/06/22 03:23:23;0.00;0.00;0.62;0.00;0.00;0.62;7.17;3.27;;;26.60;34.10;;;;;;2253293;61;20686;-65
2021/06/22 03:25:52;0.00;0.00;0.62;0.00;0.00;0.62;5.30;2.60;;;26.60;34.10;;;;;;2253352;61;20568;-65
2021/06/22 03:28:22;0.00;0.00;0.62;0.00;0.00;0.62;5.47;2.80;;;26.60;33.90;;;;;;2252815;61;20821;-65
2021/06/22 03:31:12;0.00;0.00;0.62;0.00;0.00;0.62;4.60;2.50;;;26.50;33.90;;;;;;2252731;61;20376;-66
2021/06/22 03:33:39;0.00;0.00;0.62;0.00;0.00;0.62;4.80;3.27;;;26.50;33.80;;;;;;2253851;61;20698;-64
2021/06/22 03:36:06;0.00;0.00;0.62;0.00;0.00;0.62;15.03;3.97;;;26.50;33.70;;;;;;2252824;61;20363;-66
2021/06/22 03:38:33;0.00;0.00;0.62;0.00;0.00;0.62;4.20;3.20;;;26.50;33.80;;;;;;2249944;61;20395;-63
2021/06/22 03:41:00;0.00;0.00;0.62;0.00;0.00;0.62;2.60;2.10;;;26.50;33.90;;;;;;2253086;61;20364;-63
2021/06/22 03:43:28;0.00;0.00;0.62;0.00;0.00;0.62;3.80;2.43;;;26.50;33.90;;;;;;2253293;61;20363;-65
2021/06/22 03:45:57;0.00;0.00;0.62;0.00;0.00;0.62;3.33;2.50;;;26.50;34.00;;;;;;2253751;61;20435;-66
2021/06/22 03:48:25;0.00;0.00;0.62;0.00;0.00;0.62;4.43;2.90;;;26.50;34.00;;;;;;2253814;61;20367;-63
2021/06/22 03:50:52;0.00;0.00;0.62;0.00;0.00;0.62;6.70;3.13;;;26.50;34.10;;;;;;2249448;61;20361;-64
2021/06/22 03:53:18;0.00;0.00;0.62;0.00;0.00;0.62;5.30;2.77;;;26.50;34.10;;;;;;2253664;61;20736;-65
2021/06/22 03:55:46;0.00;0.00;0.62;0.00;0.00;0.62;3.57;2.40;;;26.50;34.10;;;;;;2253249;61;20401;-66
2021/06/22 03:58:34;0.00;0.00;0.62;0.00;0.00;0.62;3.77;2.30;;;26.50;34.20;;;;;;2253397;61;20483;-62
2021/06/22 04:01:03;0.00;0.00;0.62;0.00;0.00;0.62;4.63;2.67;;;26.50;34.20;;;;;;2253075;61;20624;-68
2021/06/22 04:03:34;0.00;0.00;0.62;0.00;0.00;0.62;5.07;2.40;;;26.50;34.20;;;;;;2252876;61;20369;-65
2021/06/22 04:06:24;0.00;0.00;0.62;0.00;0.00;0.62;4.73;2.43;;;26.50;34.30;;;;;;2249632;61;20369;-65
2021/06/22 04:08:57;0.00;0.00;0.62;0.00;0.00;0.62;5.32;2.90;;;26.50;34.30;;;;;;2253381;61;20544;-65
2021/06/22 04:11:25;0.00;0.00;0.62;0.00;0.00;0.62;6.23;2.63;;;26.50;34.30;;;;;;2253189;61;20264;-64
2021/06/22 04:13:55;0.00;0.00;0.62;0.00;0.00;0.62;5.03;2.40;;;26.50;34.20;;;;;;2253482;61;20419;-64
2021/06/22 04:16:22;0.00;0.00;0.62;0.00;0.00;0.62;5.60;2.90;;;26.50;34.20;;;;;;2253701;61;20363;-64
2021/06/22 04:18:49;0.00;0.00;0.62;0.00;0.00;0.62;4.00;2.63;;;26.50;34.30;;;;;;2252756;61;20385;-67
2021/06/22 04:21:20;0.00;0.00;0.62;0.00;0.00;0.62;4.70;2.30;;;26.50;34.20;;;;;;2252777;61;20384;-66
2021/06/22 04:23:49;0.00;0.00;0.62;0.00;0.00;0.62;3.20;2.10;;;26.50;34.30;;;;;;2253105;61;20389;-67
2021/06/22 04:26:17;0.00;0.00;0.62;0.00;0.00;0.62;6.03;2.63;;;26.50;34.30;;;;;;2253072;61;20744;-65
2021/06/22 04:28:45;0.00;0.00;0.62;0.00;0.00;0.62;3.93;2.20;;;26.50;34.80;;;;;;2253096;61;20349;-68
2021/06/22 04:31:14;0.00;0.00;0.62;0.00;0.00;0.62;3.07;2.07;;;26.50;34.30;;;;;;2253014;61;20365;-68
2021/06/22 04:33:42;0.00;0.00;0.62;0.00;0.00;0.62;5.53;2.80;;;26.50;34.40;;;;;;2252817;61;20361;-67
2021/06/22 04:36:09;0.00;0.00;0.62;0.00;0.00;0.62;3.93;2.97;;;26.50;34.30;;;;;;2253380;61;20755;-67
2021/06/22 04:38:36;0.00;0.00;0.62;0.00;0.00;0.62;3.93;2.53;;;26.50;34.40;;;;;;2252980;61;20396;-64
2021/06/22 04:41:03;0.00;0.00;0.62;0.00;0.00;0.62;4.20;2.70;;;26.50;34.40;;;;;;2253171;61;20367;-64
2021/06/22 04:43:30;0.00;0.00;0.62;0.00;0.00;0.62;5.07;2.47;;;26.50;34.30;;;;;;2253271;61;20365;-67
2021/06/22 04:45:57;0.00;0.00;0.62;0.00;0.00;0.62;4.50;2.63;;;26.50;34.30;;;;;;2253481;61;20360;-67
2021/06/22 04:48:26;0.00;0.00;0.62;0.00;0.00;0.62;5.50;3.00;;;26.50;34.30;;;;;;2253346;61;20399;-66
2021/06/22 04:50:57;0.00;0.00;0.62;0.00;0.00;0.62;8.20;3.00;;;26.50;34.00;;;;;;2253303;61;20415;-66
2021/06/22 04:53:26;0.00;0.00;0.62;0.00;0.00;0.62;7.20;3.27;;;26.40;33.80;;;;;;2253525;61;20370;-64
2021/06/22 04:55:53;0.00;0.00;0.62;0.00;0.00;0.62;3.93;2.67;;;26.40;33.80;;;;;;2253141;61;20361;-66
2021/06/22 04:58:20;0.00;0.00;0.62;0.00;0.00;0.62;3.70;2.53;;;26.30;34.00;;;;;;2253175;61;20399;-65
2021/06/22 05:00:47;0.00;0.00;0.62;0.00;0.00;0.62;4.90;3.10;;;26.30;34.20;;;;;;2253407;61;20368;-63
2021/06/22 05:03:13;0.00;0.00;0.62;0.00;0.00;0.62;4.33;2.77;;;26.30;34.40;;;;;;2253225;61;20500;-64
2021/06/22 05:05:41;0.00;0.00;0.62;0.00;0.00;0.62;5.37;2.27;;;26.20;34.40;;;;;;2253155;61;20371;-66
2021/06/22 05:08:08;0.00;0.00;0.62;0.00;0.00;0.62;4.70;2.73;;;26.20;34.50;;;;;;2253015;61;20365;-66
2021/06/22 05:10:35;0.00;0.00;0.62;0.00;0.00;0.62;3.97;2.70;;;26.20;34.60;;;;;;2252995;61;20361;-66
2021/06/22 05:13:01;0.00;0.00;0.62;0.00;0.00;0.62;6.40;2.40;;;26.20;34.80;;;;;;2253209;61;20470;-67
2021/06/22 05:15:29;0.00;0.00;0.62;0.00;0.00;0.62;3.57;2.37;;;26.30;34.90;;;;;;2253489;61;20361;-69
2021/06/22 05:17:55;0.00;0.00;0.62;0.00;0.00;0.62;4.63;2.93;;;26.30;34.90;;;;;;2253132;61;20403;-67
2021/06/22 05:20:22;0.00;0.00;0.62;0.00;0.00;0.62;5.87;2.20;;;26.30;34.90;;;;;;2252929;61;20503;-67
2021/06/22 05:22:50;0.00;0.00;0.62;0.00;0.00;0.62;2.40;1.87;;;26.30;34.90;;;;;;2253027;61;20381;-67
2021/06/22 05:25:17;0.00;0.00;0.62;0.00;0.00;0.62;4.77;2.30;;;26.30;34.90;;;;;;2249355;61;20364;-66
2021/06/22 05:27:44;0.00;0.00;0.62;0.00;0.00;0.62;3.07;2.10;;;26.30;34.90;;;;;;2252692;61;20372;-62
2021/06/22 05:30:12;0.00;0.00;0.62;0.00;0.00;0.62;4.60;2.10;;;26.30;34.90;;;;;;2253377;61;20411;-62
2021/06/22 05:32:39;0.00;0.00;0.62;0.00;0.00;0.62;3.53;2.60;;;26.40;35.00;;;;;;2253085;61;20403;-65
2021/06/22 05:35:06;0.00;0.00;0.62;0.00;0.00;0.62;4.73;2.90;;;26.40;35.00;;;;;;2253116;61;20410;-65
2021/06/22 05:37:33;0.00;0.00;0.62;0.00;0.00;0.62;2.73;2.20;;;26.40;35.00;;;;;;2253318;61;20364;-62
2021/06/22 05:40:01;0.00;0.00;0.62;0.00;0.00;0.62;3.37;2.10;;;26.40;35.00;;;;;;2252828;61;20431;-64
2021/06/22 05:42:27;0.00;0.00;0.62;0.00;0.00;0.62;4.80;2.30;;;26.50;35.10;;;;;;2253074;61;20463;-64
2021/06/22 05:44:55;0.00;0.00;0.62;0.00;0.00;0.62;5.53;2.07;;;26.50;35.10;;;;;;2253448;61;20367;-63
2021/06/22 05:47:22;0.00;0.00;0.62;0.00;0.00;0.62;3.80;3.03;;;26.50;35.10;;;;;;2253118;61;20360;-64
2021/06/22 05:49:49;0.00;0.00;0.62;0.00;0.00;0.62;4.90;3.00;;;26.50;35.10;;;;;;2252551;61;20707;-60
2021/06/22 05:52:15;0.00;0.00;0.62;0.00;0.00;0.62;9.93;3.20;;;26.50;35.00;;;;;;2253228;61;20380;-63
2021/06/22 05:54:42;0.00;0.00;0.62;0.00;0.00;0.62;4.63;3.33;;;26.50;34.80;;;;;;2253063;61;20373;-62
2021/06/22 05:57:10;0.00;0.00;0.62;0.00;0.00;0.62;7.70;3.40;;;26.50;34.60;;;;;;2253139;61;20431;-64
2021/06/22 05:59:36;0.00;0.00;0.62;0.00;0.00;0.62;6.57;3.60;;;26.50;34.40;;;;;;2253222;61;20685;-68
2021/06/22 06:02:03;0.00;0.00;0.62;0.00;0.00;0.62;5.27;2.93;;;26.50;34.20;;;;;;2253058;61;20372;-66
2021/06/22 06:04:31;0.00;0.00;0.62;0.00;0.00;0.62;5.50;3.57;;;26.50;34.30;;;;;;2252994;61;20371;-69
2021/06/22 06:06:57;0.00;0.00;0.62;0.00;0.00;0.62;8.57;3.50;;;26.50;34.30;;;;;;2253321;61;20560;-66
2021/06/22 06:09:25;0.00;0.00;0.62;0.00;0.00;0.62;5.47;3.40;;;26.50;34.30;;;;;;2253707;61;20486;-68
2021/06/22 06:11:52;0.00;0.00;0.62;0.00;0.00;0.62;3.47;2.43;;;26.50;34.30;;;;;;2253702;61;20380;-67
2021/06/22 06:14:21;0.00;0.00;0.62;0.00;0.00;0.62;3.47;2.50;;;26.50;34.40;;;;;;2254020;61;20376;-66
2021/06/22 06:16:48;0.00;0.00;0.62;0.00;0.00;0.62;3.90;2.50;;;26.50;34.40;;;;;;2253696;61;20623;-69
2021/06/22 06:19:15;0.00;0.00;0.62;0.00;0.00;0.62;5.90;4.03;;;26.50;34.40;;;;;;2253406;61;20502;-63
2021/06/22 06:21:42;0.00;0.00;0.62;0.00;0.00;0.62;5.50;3.17;;;26.50;34.40;;;;;;2253930;61;20372;-66
2021/06/22 06:24:10;0.00;0.00;0.62;0.00;0.00;0.62;4.20;2.93;;;26.50;34.40;;;;;;2253559;61;20364;-68
2021/06/22 06:26:52;0.00;0.00;0.62;0.00;0.00;0.62;4.77;2.80;;;26.50;34.40;;;;;;2253683;61;20364;-66
2021/06/22 06:29:44;0.00;0.00;0.62;0.00;0.00;0.62;3.10;2.30;;;26.50;34.40;;;;;;2253603;61;20364;-65
2021/06/22 06:32:11;0.00;0.00;0.62;0.00;0.00;0.62;5.83;3.40;;;26.50;34.40;;;;;;2253533;61;20393;-67
2021/06/22 06:34:38;0.00;0.00;0.62;0.00;0.00;0.62;7.93;3.03;;;26.60;34.40;;;;;;2253324;61;20361;-66
2021/06/22 06:37:06;0.00;0.00;0.62;0.00;0.00;0.62;6.83;2.60;;;26.50;34.40;;;;;;2253948;61;20365;-68
2021/06/22 06:39:32;0.00;0.00;0.62;0.00;0.00;0.62;7.60;3.20;;;26.60;34.50;;;;;;2253300;61;20415;-66
2021/06/22 06:41:59;0.00;0.00;0.62;0.00;0.00;0.62;4.20;2.70;;;26.60;34.40;;;;;;2253505;61;20384;-68
2021/06/22 06:44:27;0.00;0.00;0.62;0.00;0.00;0.62;3.60;2.60;;;26.60;34.40;;;;;;2253494;61;20360;-68
2021/06/22 06:46:54;0.00;0.00;0.62;0.00;0.00;0.62;3.57;2.40;;;26.60;34.40;;;;;;2253174;61;20365;-71
2021/06/22 06:49:20;0.00;0.00;0.62;0.00;0.00;0.62;3.30;2.20;;;26.60;34.40;;;;;;2253360;61;20373;-66
2021/06/22 06:51:47;0.00;0.00;0.62;0.00;0.00;0.62;3.87;2.60;;;26.60;34.40;;;;;;2253117;61;20463;-65
2021/06/22 06:54:14;0.00;0.00;0.62;0.00;0.00;0.62;3.80;2.20;;;26.60;34.30;;;;;;2252818;61;20371;-64
2021/06/22 06:56:41;0.00;0.00;0.62;0.00;0.00;0.62;4.60;2.47;;;26.60;34.20;;;;;;2253340;61;20376;-69
2021/06/22 06:59:07;0.00;0.00;0.62;0.00;0.00;0.62;3.90;2.47;;;26.60;34.20;;;;;;2253465;61;20393;-67
2021/06/22 07:01:35;0.00;0.00;0.62;0.00;0.00;0.62;2.63;2.27;;;26.60;34.10;;;;;;2253130;61;20383;-67
2021/06/22 07:04:02;0.00;0.00;0.62;0.00;0.00;0.62;4.10;2.93;;;26.60;34.10;;;;;;2253360;61;20376;-66
2021/06/22 07:06:29;0.00;0.00;0.62;0.00;0.00;0.62;5.00;2.37;;;26.60;34.10;;;;;;2253584;61;20357;-66
2021/06/22 07:08:56;0.00;0.00;0.62;0.00;0.00;0.62;3.17;2.40;;;26.60;34.10;;;;;;2253403;61;20595;-67
2021/06/22 07:11:23;0.00;0.00;0.62;0.00;0.00;0.62;4.33;2.30;;;26.60;34.10;;;;;;2253177;61;20381;-66
2021/06/22 07:13:50;0.00;0.00;0.62;0.00;0.00;0.62;5.13;2.77;;;26.60;34.10;;;;;;2253555;61;20491;-66
2021/06/22 07:16:17;0.00;0.00;0.62;0.00;0.00;0.62;6.30;2.70;;;26.70;34.00;;;;;;2252681;61;20357;-68
2021/06/22 07:18:47;0.00;0.00;0.62;0.00;0.00;0.62;3.70;2.60;;;26.60;33.90;;;;;;2253036;61;20765;-67
2021/06/22 07:21:16;0.00;0.00;0.62;0.00;0.00;0.62;4.70;2.20;;;26.70;33.90;;;;;;2252825;61;20682;-68
2021/06/22 07:23:42;0.00;0.00;0.62;0.00;0.00;0.62;6.23;2.60;;;26.70;33.90;;;;;;2253312;61;20724;-69
2021/06/22 07:26:09;0.00;0.00;0.62;0.00;0.00;0.62;6.33;2.50;;;26.70;33.90;;;;;;2253210;61;20383;-66
2021/06/22 07:28:36;0.00;0.00;0.62;0.00;0.00;0.62;6.03;2.90;;;26.70;33.90;;;;;;2253539;61;20372;-68
2021/06/22 07:31:03;0.00;0.00;0.62;0.00;0.00;0.62;3.47;2.30;;;26.70;33.90;;;;;;2253119;61;20364;-65
2021/06/22 07:33:30;0.00;0.00;0.62;0.00;0.00;0.62;7.00;2.70;;;26.70;33.90;;;;;;2253250;61;20366;-67
2021/06/22 07:35:58;0.00;0.00;0.62;0.00;0.00;0.62;5.23;2.80;;;26.70;33.90;;;;;;2253601;61;20384;-65
2021/06/22 07:38:25;0.00;0.00;0.62;0.00;0.00;0.62;6.93;2.50;;;26.70;33.80;;;;;;2253009;61;20388;-68
2021/06/22 07:40:53;0.00;0.00;0.62;0.00;0.00;0.62;3.00;2.00;;;26.70;33.70;;;;;;2253166;61;20363;-67
2021/06/22 07:43:20;0.00;0.00;0.62;0.00;0.00;0.62;4.10;2.40;;;26.70;33.70;;;;;;2253358;61;20385;-65
2021/06/22 07:45:47;0.00;0.00;0.62;0.00;0.00;0.62;3.60;2.47;;;26.70;33.70;;;;;;2253066;61;20361;-67
2021/06/22 07:48:14;0.00;0.00;0.62;0.00;0.00;0.62;4.33;2.60;;;26.70;33.80;;;;;;2253196;61;20373;-65
2021/06/22 07:50:40;0.00;0.00;0.62;0.00;0.00;0.62;5.93;2.30;;;26.70;33.60;;;;;;2252773;61;20365;-70
2021/06/22 07:53:09;0.00;0.00;0.62;0.00;0.00;0.62;4.10;2.67;;;26.70;34.30;;;;;;2253035;61;20592;-68
2021/06/22 07:55:36;0.00;0.00;0.62;0.00;0.00;0.62;3.73;2.20;;;26.70;33.50;;;;;;2253158;61;20380;-66
2021/06/22 07:58:03;0.00;0.00;0.62;0.00;0.00;0.62;6.07;2.40;;;26.70;33.40;;;;;;2253215;61;20682;-65
2021/06/22 08:00:39;0.00;0.00;0.62;0.00;0.00;0.62;3.03;2.20;;;26.70;33.50;;;;;;2252870;61;20392;-66
2021/06/22 08:03:06;0.00;0.00;0.62;0.00;0.00;0.62;3.30;2.80;;;26.70;33.40;;;;;;2253210;61;20497;-63
2021/06/22 08:05:33;0.00;0.00;0.62;0.00;0.00;0.62;3.93;2.67;;;26.70;33.40;;;;;;2253156;61;20368;-66
2021/06/22 08:08:00;0.00;0.00;0.62;0.00;0.00;0.62;3.90;1.90;;;26.70;33.40;;;;;;2253148;61;20384;-64
2021/06/22 08:10:29;0.00;0.00;0.62;0.00;0.00;0.62;4.33;2.10;;;26.70;33.40;;;;;;2253039;61;20364;-65
2021/06/22 08:12:57;0.00;0.00;0.62;0.00;0.00;0.62;3.87;2.37;;;26.70;33.40;;;;;;2252890;61;20508;-64
2021/06/22 08:15:24;0.00;0.00;0.62;0.00;0.00;0.62;4.23;2.13;;;26.70;33.40;;;;;;2253234;61;20589;-65
2021/06/22 08:17:51;0.00;0.00;0.62;0.00;0.00;0.62;4.00;2.50;;;26.70;33.30;;;;;;2253047;61;20396;-64
2021/06/22 08:20:18;0.00;0.00;0.62;0.00;0.00;0.62;5.83;2.20;;;26.70;33.30;;;;;;2253125;61;20415;-67
2021/06/22 08:22:51;0.00;0.00;0.62;0.00;0.00;0.62;4.07;2.50;;;26.70;33.30;;;;;;2253183;61;20381;-64
2021/06/22 08:25:19;0.00;0.00;0.62;0.00;0.00;0.62;4.00;2.37;;;26.70;33.30;;;;;;2252611;61;20360;-68
2021/06/22 08:27:48;0.00;0.00;0.62;0.00;0.00;0.62;5.00;2.33;;;26.70;33.30;;;;;;2253304;61;20364;-64
2021/06/22 08:30:16;0.00;0.00;0.62;0.00;0.00;0.62;3.50;2.40;;;26.70;33.30;;;;;;2252269;61;20723;-67
2021/06/22 08:32:43;0.00;0.00;0.62;0.00;0.00;0.62;6.43;2.33;;;26.70;33.30;;;;;;2253042;61;20413;-67
2021/06/22 08:35:11;0.00;0.00;0.62;0.00;0.00;0.62;2.50;1.50;;;26.70;33.30;;;;;;2252784;61;20357;-68
2021/06/22 08:37:38;0.00;0.00;0.62;0.00;0.00;0.62;5.70;1.90;;;26.80;33.40;;;;;;2252996;61;20403;-63
2021/06/22 08:40:08;0.00;0.00;0.62;0.00;0.00;0.62;3.90;2.57;;;26.80;33.40;;;;;;2252764;61;20400;-67
2021/06/22 08:42:37;0.00;0.00;0.62;0.00;0.00;0.62;3.33;2.57;;;26.80;33.40;;;;;;2253349;61;20385;-68
2021/06/22 08:45:09;0.00;0.00;0.62;0.00;0.00;0.62;7.30;2.40;;;26.70;33.40;;;;;;2252877;61;20368;-64
2021/06/22 08:47:36;0.00;0.00;0.62;0.00;0.00;0.62;3.90;2.43;;;26.80;33.40;;;;;;2253086;61;20375;-67
2021/06/22 08:50:05;0.00;0.00;0.62;0.00;0.00;0.62;3.60;2.17;;;26.80;33.40;;;;;;2253247;61;20367;-66
2021/06/22 08:52:34;0.00;0.00;0.62;0.00;0.00;0.62;4.10;2.70;;;26.80;33.40;;;;;;2252547;61;20381;-66
2021/06/22 08:55:02;0.00;0.00;0.62;0.00;0.00;0.62;3.40;2.27;;;26.80;33.40;;;;;;2253103;61;20364;-67
2021/06/22 08:57:30;0.00;0.00;0.62;0.00;0.00;0.62;3.77;2.67;;;26.80;33.40;;;;;;2253518;61;20611;-66
2021/06/22 08:59:56;0.00;0.00;0.62;0.00;0.00;0.62;3.70;2.13;;;26.80;33.30;;;;;;2252768;61;20787;-69
2021/06/22 09:02:25;0.00;0.00;0.62;0.00;0.00;0.62;4.43;2.40;;;26.80;33.30;;;;;;2252958;61;20380;-63
2021/06/22 09:04:53;0.00;0.00;0.62;0.00;0.00;0.62;4.30;2.30;;;26.80;33.30;;;;;;2253249;61;20377;-64
2021/06/22 09:07:48;0.00;0.00;0.62;0.00;0.00;0.62;5.07;2.47;;;26.80;33.20;;;;;;2253085;61;20706;-65
2021/06/22 09:10:21;0.00;0.00;0.62;0.00;0.00;0.62;4.07;2.77;;;26.80;33.20;;;;;;2253177;61;20361;-67
2021/06/22 09:12:49;0.00;0.00;0.62;0.00;0.00;0.62;6.07;2.37;;;26.80;33.20;;;;;;2253581;61;20381;-67
2021/06/22 09:15:25;0.00;0.00;0.62;0.00;0.00;0.62;4.70;2.53;;;26.80;33.20;;;;;;2253131;61;20368;-66
2021/06/22 09:17:54;0.00;0.00;0.62;0.00;0.00;0.62;3.73;2.63;;;26.80;33.10;;;;;;2253244;61;20356;-68
2021/06/22 09:20:35;0.00;0.00;0.62;0.00;0.00;0.62;4.37;2.17;;;26.80;33.10;;;;;;2253398;61;20389;-69
2021/06/22 09:23:14;0.00;0.00;0.62;0.00;0.00;0.62;3.27;2.30;;;26.80;33.10;;;;;;2249162;61;20430;-65
2021/06/22 09:25:42;0.00;0.00;0.62;0.00;0.00;0.62;3.20;2.10;;;26.80;33.10;;;;;;2253420;61;20365;-68
2021/06/22 09:28:09;0.00;0.00;0.62;0.00;0.00;0.62;3.50;2.20;;;26.80;33.10;;;;;;2253475;61;20716;-64
2021/06/22 09:30:51;0.00;0.00;0.62;0.00;0.00;0.62;3.07;2.10;;;26.80;33.00;;;;;;2252945;61;20368;-67
2021/06/22 09:33:23;0.00;0.00;0.62;0.00;0.00;0.62;3.00;1.97;;;26.90;33.00;;;;;;2253436;61;20377;-63
2021/06/22 09:36:02;0.00;0.00;0.62;0.00;0.00;0.62;3.07;1.93;;;26.90;32.90;;;;;;2253383;61;20376;-65
2021/06/22 09:38:32;0.00;0.00;0.62;0.00;0.00;0.62;3.63;2.37;;;26.90;32.80;;;;;;2252777;61;20735;-64
2021/06/22 09:41:09;0.00;0.00;0.62;0.00;0.00;0.62;2.40;2.00;;;26.90;32.60;;;;;;2252930;61;20368;-66
2021/06/22 09:43:39;0.00;0.00;0.62;0.00;0.00;0.62;2.40;1.77;;;26.90;32.40;;;;;;2254066;61;20382;-66
2021/06/22 09:46:07;0.00;0.00;0.62;0.00;0.00;0.62;4.83;2.20;;;26.90;32.30;;;;;;2253080;61;20435;-67
2021/06/22 09:49:01;0.00;0.00;0.62;0.00;0.00;0.62;3.90;1.70;;;26.90;32.20;;;;;;2253681;61;20352;-67